»·PEaware :: VIP318 KSLE-KBKE

VIP318 :: KSLE-KBKE

FLIGHT INFORMATION

Flight Status: Arrived
Operator:
Virtual Pilots Association (website)
More flights by this operator :: More flights under this callsign
Pilot: Chris B. (15698)
Aircraft: PIAGGIO P-180 AVANTI
(P180)
More flights by this aircraft type
Origin: KSLE McNary
United States
Destination: KBKE Baker City Mun
United States
More flights between these airports :: More routes between these airports
Route: +IMB V121 BKE
File this flight plan on PilotEdge
Remarks:
Altitude:
(Current/Filed)
21,000ft
Speed:
(Current/Filed)
340kts
Departed: 22-Jan-18 07:46 PM
Arrived: 22-Jan-18 08:40 PM
Distance/Time
Traveled:
221nm/0:54
Distance/Time
To Go:
Arrived

Flight Plot

Page will automatically refresh every two minutes.

Flight plan parsing failed; only flown route is shown


Map Options




Map Legend


Flown Route
Filed Route
Departure Airport
Arrival Airport
Navaid (VOR, NDB)
Fix

Horizontal Profiles

Position Reports

Time Latitude Longitude Heading Altitude Ground
Speed
22-Jan-18 19:34 44.906241 -123.006393 1 218ft 0kts
22-Jan-18 19:35 44.906241 -123.006393 0 218ft 0kts
22-Jan-18 19:36 44.906241 -123.006393 1 218ft 0kts
22-Jan-18 19:37 44.906241 -123.006393 1 218ft 0kts
22-Jan-18 19:38 44.906241 -123.006393 1 218ft 0kts
22-Jan-18 19:39 44.906241 -123.006393 1 218ft 0kts
22-Jan-18 19:40 44.906241 -123.006393 1 218ft 0kts
22-Jan-18 19:41 44.906241 -123.006393 1 218ft 0kts
22-Jan-18 19:42 44.906241 -123.006393 1 218ft 0kts
22-Jan-18 19:43 44.906241 -123.006393 1 218ft 0kts
22-Jan-18 19:44 44.906241 -123.006393 1 218ft 0kts
22-Jan-18 19:45 44.906369 -123.005948 88 218ft 0kts
22-Jan-18 19:46 44.906372 -123.005822 88 218ft 0kts
22-Jan-18 19:47 44.906373 -123.005696 88 218ft 0kts
22-Jan-18 19:48 44.907379 -123.005539 1 218ft 14kts
22-Jan-18 19:49 44.912112 -123.005432 352 218ft 27kts
22-Jan-18 19:50 44.916901 -123.006255 90 218ft 7kts
22-Jan-18 19:51 44.915375 -123.003282 180 218ft 0kts
22-Jan-18 19:52 44.905492 -123.003523 180 320ft 120kts
22-Jan-18 19:53 44.871439 -122.999367 134 1945ft 147kts
22-Jan-18 19:54 44.902562 -122.963248 351 2105ft 229kts
22-Jan-18 19:55 44.954214 -122.988879 339 3894ft 188kts
22-Jan-18 19:56 45.001765 -122.997845 353 5560ft 177kts
22-Jan-18 19:57 45.048432 -122.986896 53 7058ft 199kts
22-Jan-18 19:58 45.037004 -122.916837 105 9311ft 205kts
22-Jan-18 19:59 45.025534 -122.845297 97 11095ft 213kts
22-Jan-18 20:00 45.016073 -122.763709 96 13071ft 225kts
22-Jan-18 20:01 45.006794 -122.678106 96 15123ft 236kts
22-Jan-18 20:02 44.997338 -122.590248 96 17039ft 245kts
22-Jan-18 20:03 44.987327 -122.498016 96 18793ft 254kts
22-Jan-18 20:04 44.976690 -122.400832 96 20410ft 262kts
22-Jan-18 20:05 44.966470 -122.307802 97 21367ft 293kts
22-Jan-18 20:06 44.952550 -122.182696 97 21372ft 363kts
22-Jan-18 20:07 44.936282 -122.037922 97 21361ft 386kts
22-Jan-18 20:08 44.919451 -121.889891 98 21328ft 384kts
22-Jan-18 20:09 44.902686 -121.744239 98 21329ft 382kts
22-Jan-18 20:10 44.885718 -121.598480 98 21331ft 382kts
22-Jan-18 20:11 44.868487 -121.452115 98 21332ft 382kts
22-Jan-18 20:12 44.852076 -121.314198 98 21327ft 382kts
22-Jan-18 20:13 44.834975 -121.172231 98 21326ft 381kts
22-Jan-18 20:14 44.817345 -121.027245 98 21327ft 381kts
22-Jan-18 20:15 44.799460 -120.881850 98 21329ft 381kts
22-Jan-18 20:16 44.781278 -120.735698 98 21330ft 381kts
22-Jan-18 20:17 44.762982 -120.590110 98 21331ft 381kts
22-Jan-18 20:18 44.744485 -120.444596 98 21332ft 381kts
22-Jan-18 20:19 44.726431 -120.303858 99 21311ft 381kts
22-Jan-18 20:20 44.708048 -120.162191 98 21308ft 380kts
22-Jan-18 20:21 44.689112 -120.017658 98 21309ft 380kts
22-Jan-18 20:22 44.670186 -119.874687 98 21319ft 380kts
22-Jan-18 20:23 44.651636 -119.731249 92 21309ft 379kts
22-Jan-18 20:24 44.662095 -119.586665 77 21322ft 374kts
22-Jan-18 20:25 44.677384 -119.443960 76 20976ft 370kts
22-Jan-18 20:26 44.691842 -119.308368 77 19445ft 356kts
22-Jan-18 20:27 44.705607 -119.177672 78 17881ft 345kts
22-Jan-18 20:28 44.719182 -119.047328 78 16287ft 336kts
22-Jan-18 20:29 44.732241 -118.920526 78 14704ft 328kts
22-Jan-18 20:30 44.744892 -118.796364 78 13121ft 318kts
22-Jan-18 20:31 44.756880 -118.677200 78 12999ft 306kts
22-Jan-18 20:32 44.768444 -118.561211 78 13000ft 302kts
22-Jan-18 20:33 44.779855 -118.445522 78 13001ft 300kts
22-Jan-18 20:34 44.790720 -118.334247 79 12998ft 299kts
22-Jan-18 20:35 44.798890 -118.249468 79 12974ft 268kts
22-Jan-18 20:36 44.807728 -118.157067 78 12832ft 220kts
22-Jan-18 20:37 44.820171 -118.072583 43 11917ft 232kts
22-Jan-18 20:38 44.874927 -118.026628 24 10664ft 240kts
22-Jan-18 20:39 44.931615 -117.983368 24 8788ft 225kts
22-Jan-18 20:40 44.982202 -117.938982 45 6874ft 215kts
22-Jan-18 20:41 45.004504 -117.871935 120 5492ft 189kts
22-Jan-18 20:42 44.963892 -117.858570 178 5499ft 150kts
22-Jan-18 20:43 44.921889 -117.854783 178 5240ft 152kts
22-Jan-18 20:44 44.882355 -117.850399 168 4759ft 141kts
22-Jan-18 20:45 44.849859 -117.821694 141 3636ft 134kts
22-Jan-18 20:46 44.833953 -117.804082 145 3378ft 13kts
22-Jan-18 20:47 44.831510 -117.802897 322 3378ft 15kts
22-Jan-18 20:48 44.834531 -117.806269 321 3378ft 11kts
22-Jan-18 20:49 44.834679 -117.808115 47 3378ft 0kts
22-Jan-18 20:50 44.834681 -117.808113 47 3378ft 0kts
22-Jan-18 20:51 44.834681 -117.808113 47 3378ft 0kts

Navigation Log

Ident Type
Flight plan parsing failed, navigation log unavailable